createdAt,value
2023-06-21T00:01:58.794Z,6.20
2023-06-21T00:04:28.635Z,5.37
2023-06-21T00:06:58.133Z,5.63
2023-06-21T00:09:26.446Z,5.83
2023-06-21T00:11:54.844Z,6.37
2023-06-21T00:14:24.163Z,6.90
2023-06-21T00:16:53.448Z,6.80
2023-06-21T00:19:22.713Z,5.50
2023-06-21T00:21:53.225Z,6.00
2023-06-21T00:24:22.479Z,6.17
2023-06-21T00:26:51.852Z,5.80
2023-06-21T00:29:22.393Z,5.70
2023-06-21T00:31:51.763Z,6.30
2023-06-21T00:34:21.009Z,6.70
2023-06-21T00:36:50.257Z,6.00
2023-06-21T00:39:21.433Z,6.03
2023-06-21T00:41:50.728Z,6.07
2023-06-21T00:44:20.125Z,6.63
2023-06-21T00:46:51.497Z,6.37
2023-06-21T00:49:21.026Z,6.80
2023-06-21T00:51:50.959Z,6.83
2023-06-21T00:54:21.768Z,7.97
2023-06-21T00:56:51.348Z,6.30
2023-06-21T00:59:20.952Z,6.60
2023-06-21T01:01:50.133Z,6.60
2023-06-21T01:04:19.334Z,6.87
2023-06-21T01:06:51.063Z,6.37
2023-06-21T01:09:27.344Z,6.20
2023-06-21T01:12:00.396Z,6.13
2023-06-21T01:14:35.279Z,5.93
2023-06-21T01:17:05.412Z,6.77
2023-06-21T01:19:40.017Z,5.80
2023-06-21T01:22:19.997Z,6.63
2023-06-21T01:25:00.756Z,5.60
2023-06-21T01:27:33.248Z,6.77
2023-06-21T01:30:04.161Z,6.07
2023-06-21T01:32:33.463Z,7.07
2023-06-21T01:35:03.343Z,6.17
2023-06-21T01:37:32.640Z,5.83
2023-06-21T01:40:10.475Z,6.30
2023-06-21T01:42:40.631Z,6.03
2023-06-21T01:45:12.431Z,6.37
2023-06-21T01:47:42.471Z,5.67
2023-06-21T01:50:12.488Z,6.63
2023-06-21T01:52:43.135Z,6.13
2023-06-21T01:55:12.936Z,6.13
2023-06-21T01:57:42.214Z,6.80
2023-06-21T02:00:17.858Z,6.07
2023-06-21T02:02:49.663Z,5.83
2023-06-21T02:05:20.011Z,5.67
2023-06-21T02:07:49.893Z,5.57
2023-06-21T02:10:20.215Z,6.20
2023-06-21T02:12:51.371Z,6.20
2023-06-21T02:15:22.287Z,5.87
2023-06-21T02:17:51.917Z,6.43
2023-06-21T02:20:23.240Z,4.97
2023-06-21T02:22:52.960Z,5.33
2023-06-21T02:25:23.101Z,6.20
2023-06-21T02:27:52.512Z,6.47
2023-06-21T02:30:23.588Z,6.50
2023-06-21T02:32:53.644Z,5.90
2023-06-21T02:35:23.617Z,5.73
2023-06-21T02:37:52.849Z,5.77
2023-06-21T02:40:22.526Z,6.30
2023-06-21T02:42:51.845Z,6.60
2023-06-21T02:45:23.008Z,6.00
2023-06-21T02:47:52.360Z,6.33
2023-06-21T02:50:22.277Z,5.97
2023-06-21T02:52:51.850Z,5.83
2023-06-21T02:55:23.666Z,5.80
2023-06-21T02:57:53.045Z,6.53
2023-06-21T03:00:30.036Z,6.73
2023-06-21T03:03:01.757Z,6.23
2023-06-21T03:05:31.211Z,6.60
2023-06-21T03:08:04.633Z,5.87
2023-06-21T03:10:34.922Z,6.40
2023-06-21T03:13:04.472Z,6.00
2023-06-21T03:15:35.164Z,6.10
2023-06-21T03:18:04.980Z,6.10
2023-06-21T03:20:34.294Z,7.53
2023-06-21T03:23:03.674Z,6.40
2023-06-21T03:25:33.308Z,7.30
2023-06-21T03:28:02.853Z,6.87
2023-06-21T03:30:32.771Z,6.27
2023-06-21T03:33:03.572Z,6.90
2023-06-21T03:35:32.965Z,6.83
2023-06-21T03:38:02.484Z,8.00
2023-06-21T03:40:32.052Z,7.50
2023-06-21T03:43:01.604Z,7.40
2023-06-21T03:45:31.082Z,8.07
2023-06-21T03:48:00.554Z,7.67
2023-06-21T03:50:31.513Z,6.97
2023-06-21T03:53:01.104Z,7.37
2023-06-21T03:55:32.498Z,7.23
2023-06-21T03:58:01.917Z,7.57
2023-06-21T04:00:31.538Z,8.33
2023-06-21T04:03:01.048Z,8.57
2023-06-21T04:05:31.864Z,8.43
2023-06-21T04:08:01.471Z,6.77
2023-06-21T04:10:31.114Z,6.90
2023-06-21T04:13:00.650Z,7.73
2023-06-21T04:15:31.296Z,7.23
2023-06-21T04:18:00.767Z,7.03
2023-06-21T04:20:31.498Z,7.63
2023-06-21T04:23:02.885Z,7.67
2023-06-21T04:25:32.394Z,6.50
2023-06-21T04:28:01.716Z,6.73
2023-06-21T04:30:34.909Z,7.30
2023-06-21T04:33:04.520Z,6.83
2023-06-21T04:35:34.505Z,6.17
2023-06-21T04:38:05.891Z,7.03
2023-06-21T04:40:37.612Z,6.43
2023-06-21T04:43:08.062Z,6.47
2023-06-21T04:45:37.901Z,6.77
2023-06-21T04:48:08.165Z,6.57
2023-06-21T04:50:37.921Z,7.43
2023-06-21T04:53:08.892Z,7.10
2023-06-21T04:55:43.645Z,7.30
2023-06-21T04:58:14.632Z,7.43
2023-06-21T05:00:44.250Z,7.70
2023-06-21T05:03:13.752Z,7.20
2023-06-21T05:05:43.253Z,7.83
2023-06-21T05:08:14.217Z,8.07
2023-06-21T05:10:43.540Z,7.53
2023-06-21T05:13:13.014Z,8.17
2023-06-21T05:15:42.443Z,7.57
2023-06-21T05:18:11.918Z,7.30
2023-06-21T05:20:41.420Z,7.00
2023-06-21T05:23:10.763Z,7.87
2023-06-21T05:25:41.484Z,7.53
2023-06-21T05:28:11.048Z,7.33
2023-06-21T05:30:40.408Z,7.50
2023-06-21T05:33:09.793Z,7.00
2023-06-21T05:35:39.082Z,6.63
2023-06-21T05:38:09.493Z,6.57
2023-06-21T05:40:39.139Z,7.40
2023-06-21T05:43:10.806Z,6.67
2023-06-21T05:45:41.361Z,6.93
2023-06-21T05:48:10.806Z,6.83
2023-06-21T05:50:40.823Z,7.07
2023-06-21T05:53:10.533Z,6.67
2023-06-21T05:55:41.734Z,6.27
2023-06-21T05:58:12.665Z,7.80
2023-06-21T06:00:42.121Z,7.47
2023-06-21T06:03:13.319Z,6.27
2023-06-21T06:05:42.696Z,7.63
2023-06-21T06:08:12.200Z,7.53
2023-06-21T06:10:41.506Z,7.03
2023-06-21T06:13:12.349Z,7.63
2023-06-21T06:15:41.957Z,7.73
2023-06-21T06:18:11.660Z,7.17
2023-06-21T06:20:42.209Z,7.27
2023-06-21T06:23:13.412Z,6.80
2023-06-21T06:25:43.118Z,6.20
2023-06-21T06:28:14.224Z,7.00
2023-06-21T06:30:46.096Z,6.43
2023-06-21T06:33:15.641Z,6.47
2023-06-21T06:35:46.763Z,7.47
2023-06-21T06:38:16.211Z,5.97
2023-06-21T06:40:45.906Z,6.50
2023-06-21T06:43:16.841Z,7.03
2023-06-21T06:45:46.289Z,6.70
2023-06-21T06:48:16.429Z,6.83
2023-06-21T06:50:47.893Z,7.17
2023-06-21T06:53:17.634Z,6.40
2023-06-21T06:55:47.689Z,7.20
2023-06-21T06:58:20.381Z,6.90
2023-06-21T07:00:49.999Z,6.17
2023-06-21T07:03:21.839Z,6.17
2023-06-21T07:05:54.817Z,6.53
2023-06-21T07:08:26.148Z,6.27
2023-06-21T07:10:56.735Z,6.80
2023-06-21T07:13:30.255Z,7.30
2023-06-21T07:16:01.187Z,7.30
2023-06-21T07:18:31.326Z,6.80
2023-06-21T07:21:00.739Z,7.23
2023-06-21T07:23:31.301Z,6.77
2023-06-21T07:26:01.388Z,7.53
2023-06-21T07:28:32.758Z,6.37
2023-06-21T07:31:04.683Z,6.23
2023-06-21T07:33:34.272Z,6.10
2023-06-21T07:36:04.818Z,5.87
2023-06-21T07:41:28.302Z,5.97
2023-06-21T07:43:59.312Z,6.53
2023-06-21T07:52:26.137Z,5.77
2023-06-21T07:54:55.634Z,5.97
2023-06-21T07:57:25.188Z,6.20
2023-06-21T07:59:57.212Z,6.10
2023-06-21T08:02:26.726Z,6.00
2023-06-21T08:04:56.108Z,5.50
2023-06-21T08:07:25.608Z,5.40
2023-06-21T08:09:55.123Z,4.77
2023-06-21T08:12:24.474Z,5.33
2023-06-21T08:14:53.822Z,5.47
2023-06-21T08:17:24.584Z,5.33
2023-06-21T08:19:53.958Z,5.27
2023-06-21T08:22:23.393Z,5.13
2023-06-21T08:24:53.898Z,5.27
2023-06-21T08:27:23.307Z,5.33
2023-06-21T08:29:52.715Z,5.30
2023-06-21T08:32:22.269Z,5.47
2023-06-21T08:34:55.596Z,6.00
2023-06-21T08:37:37.357Z,5.57
2023-06-21T08:40:28.623Z,5.57
2023-06-21T08:43:13.108Z,5.50
2023-06-21T08:45:42.603Z,5.23
2023-06-21T08:48:18.090Z,5.10
2023-06-21T08:50:49.020Z,5.77
2023-06-21T08:53:38.451Z,5.37
2023-06-21T08:58:48.578Z,5.70
2023-06-21T09:01:20.776Z,4.93
2023-06-21T09:03:55.901Z,5.13
2023-06-21T09:06:27.380Z,5.83
2023-06-21T09:08:57.066Z,5.90
2023-06-21T09:11:27.264Z,5.83
2023-06-21T09:13:57.227Z,5.80
2023-06-21T09:16:27.111Z,5.43
2023-06-21T09:18:56.855Z,5.97
2023-06-21T09:21:27.857Z,6.10
2023-06-21T09:23:58.850Z,6.17
2023-06-21T09:26:28.070Z,5.90
2023-06-21T09:28:57.724Z,6.23
2023-06-21T09:31:28.595Z,6.40
2023-06-21T09:33:59.084Z,6.17
2023-06-21T09:36:29.967Z,6.07
2023-06-21T09:39:09.806Z,6.17
2023-06-21T09:41:39.446Z,6.07
2023-06-21T09:44:08.756Z,5.67
2023-06-21T09:46:38.238Z,6.33
2023-06-21T09:49:11.819Z,5.93
2023-06-21T09:51:48.607Z,5.57
2023-06-21T09:54:17.962Z,5.70
2023-06-21T09:56:47.748Z,6.27
2023-06-21T09:59:19.007Z,6.63
2023-06-21T10:01:49.743Z,6.43
2023-06-21T10:04:19.929Z,5.80
2023-06-21T10:06:55.661Z,6.17
2023-06-21T10:09:25.091Z,6.10
2023-06-21T10:11:58.281Z,6.30
2023-06-21T10:14:29.060Z,6.20
2023-06-21T10:16:58.410Z,5.93
2023-06-21T10:19:30.951Z,6.47
2023-06-21T10:22:06.728Z,6.03
2023-06-21T10:24:39.881Z,6.60
2023-06-21T10:27:09.905Z,5.97
2023-06-21T10:29:41.256Z,5.93
2023-06-21T10:32:11.684Z,7.17
2023-06-21T10:34:48.094Z,6.30
2023-06-21T10:37:22.927Z,6.33
2023-06-21T10:40:09.493Z,6.83
2023-06-21T10:42:39.709Z,6.00
2023-06-21T10:45:11.755Z,6.30
2023-06-21T10:47:40.958Z,6.60
2023-06-21T10:50:10.001Z,7.43
2023-06-21T10:52:40.021Z,5.50
2023-06-21T10:55:14.321Z,6.57
2023-06-21T10:57:43.594Z,5.63
2023-06-21T11:00:12.839Z,4.17
2023-06-21T11:02:41.424Z,4.53
2023-06-21T11:05:17.314Z,3.70
2023-06-21T11:07:52.650Z,3.80
2023-06-21T11:10:23.589Z,3.80
2023-06-21T11:12:57.470Z,3.87
2023-06-21T11:15:27.693Z,4.07
2023-06-21T11:18:00.072Z,4.77
2023-06-21T11:20:29.288Z,3.57
2023-06-21T11:23:00.648Z,5.47
2023-06-21T11:25:29.476Z,4.13
2023-06-21T11:28:16.489Z,5.03
2023-06-21T11:31:07.699Z,4.43
2023-06-21T11:33:48.968Z,4.10
2023-06-21T11:36:27.933Z,4.17
2023-06-21T11:39:27.101Z,4.30
2023-06-21T11:42:03.752Z,4.43
2023-06-21T11:44:35.295Z,4.90
2023-06-21T11:47:22.081Z,4.77
2023-06-21T11:49:52.701Z,3.93
2023-06-21T11:52:34.186Z,4.17
2023-06-21T11:58:06.108Z,4.27
2023-06-21T12:00:35.160Z,4.53
2023-06-21T12:03:04.870Z,4.13
2023-06-21T12:05:47.193Z,3.97
2023-06-21T12:08:22.297Z,4.50
2023-06-21T12:10:53.730Z,3.73
2023-06-21T12:13:24.529Z,4.13
2023-06-21T12:15:59.724Z,4.03
2023-06-21T12:18:32.724Z,4.60
2023-06-21T12:21:02.642Z,4.03
2023-06-21T12:23:32.753Z,4.43
2023-06-21T12:26:04.031Z,3.97
2023-06-21T12:28:41.582Z,5.07
2023-06-21T12:31:25.623Z,3.87
2023-06-21T12:34:02.303Z,4.13
2023-06-21T12:36:33.106Z,4.43
2023-06-21T12:39:04.757Z,5.33
2023-06-21T12:41:36.950Z,3.70
2023-06-21T12:44:09.570Z,4.17
2023-06-21T12:46:40.784Z,4.53
2023-06-21T12:49:10.458Z,4.03
2023-06-21T12:51:40.908Z,4.47
2023-06-21T12:54:10.714Z,4.30
2023-06-21T12:56:44.586Z,3.80
2023-06-21T12:59:17.759Z,4.33
2023-06-21T13:02:11.869Z,4.27
2023-06-21T13:04:48.559Z,4.37
2023-06-21T13:07:19.234Z,4.47
2023-06-21T13:09:48.790Z,4.13
2023-06-21T13:12:31.426Z,3.53
2023-06-21T13:15:16.574Z,4.47
2023-06-21T13:17:53.633Z,4.10
2023-06-21T13:20:38.290Z,3.83
2023-06-21T13:23:11.782Z,4.70
2023-06-21T13:25:43.653Z,3.93
2023-06-21T13:28:17.565Z,3.60
2023-06-21T13:31:12.167Z,4.23
2023-06-21T13:33:52.109Z,3.90
2023-06-21T13:36:25.345Z,4.77
2023-06-21T13:38:57.062Z,3.27
2023-06-21T13:41:37.544Z,3.33
2023-06-21T13:44:09.689Z,5.13
2023-06-21T13:49:38.629Z,4.07
2023-06-21T13:52:14.021Z,4.23
2023-06-21T13:54:57.559Z,3.40
2023-06-21T14:00:30.263Z,3.70
2023-06-21T14:03:18.120Z,3.40
2023-06-21T14:06:08.298Z,3.60
2023-06-21T14:08:41.008Z,3.13
2023-06-21T14:11:12.986Z,3.30
2023-06-21T14:13:45.726Z,3.53
2023-06-21T14:19:18.676Z,4.10
2023-06-21T14:21:53.570Z,3.73
2023-06-21T14:24:22.334Z,3.40
2023-06-21T14:26:51.011Z,3.80
2023-06-21T14:29:22.042Z,3.53
2023-06-21T14:31:51.636Z,3.70
2023-06-21T14:34:21.215Z,3.30
2023-06-21T14:36:52.473Z,3.27
2023-06-21T14:39:22.804Z,3.57
2023-06-21T14:41:51.545Z,3.30
2023-06-21T14:44:21.597Z,3.63
2023-06-21T14:46:51.609Z,3.93
2023-06-21T14:49:35.873Z,3.50
2023-06-21T14:52:21.062Z,3.50
2023-06-21T14:54:54.224Z,3.80
2023-06-21T14:57:34.255Z,3.40
2023-06-21T15:06:08.701Z,3.90
2023-06-21T15:08:37.591Z,3.20
2023-06-21T15:11:08.424Z,3.37
2023-06-21T15:13:41.972Z,3.40
2023-06-21T15:16:12.884Z,3.13
2023-06-21T15:18:45.718Z,3.23
2023-06-21T15:27:10.789Z,2.87
2023-06-21T15:29:47.179Z,3.30
2023-06-21T15:32:17.327Z,3.00
2023-06-21T15:34:48.846Z,3.37
2023-06-21T15:37:22.564Z,3.53
2023-06-21T15:39:52.671Z,3.20
2023-06-21T15:42:23.608Z,3.33
2023-06-21T15:44:54.563Z,3.47
2023-06-21T15:47:24.285Z,3.17
2023-06-21T15:49:56.623Z,4.07
2023-06-21T15:52:27.475Z,3.60
2023-06-21T15:54:57.590Z,3.57
2023-06-21T15:57:29.834Z,3.43
2023-06-21T16:00:02.850Z,3.57
2023-06-21T16:02:41.906Z,3.87
2023-06-21T16:08:09.360Z,3.47
2023-06-21T16:13:27.450Z,4.37
2023-06-21T16:15:57.379Z,3.43
2023-06-21T16:18:26.470Z,2.97
2023-06-21T16:20:59.095Z,3.70
2023-06-21T16:23:27.663Z,3.37
2023-06-21T16:25:59.233Z,3.50
2023-06-21T16:28:31.673Z,3.67
2023-06-21T16:31:04.926Z,3.40
2023-06-21T16:33:35.902Z,3.47
2023-06-21T16:36:04.786Z,3.80
2023-06-21T16:38:33.236Z,3.83
2023-06-21T16:41:01.889Z,3.20
2023-06-21T16:43:31.985Z,3.37
2023-06-21T16:46:00.423Z,4.00
2023-06-21T16:48:29.056Z,3.53
2023-06-21T16:50:58.004Z,3.30
2023-06-21T16:53:26.999Z,3.60
2023-06-21T16:55:56.025Z,3.63
2023-06-21T16:58:24.406Z,4.00
2023-06-21T17:01:00.353Z,3.90
2023-06-21T17:03:29.058Z,3.77
2023-06-21T17:05:58.767Z,3.50
2023-06-21T17:08:28.528Z,3.67
2023-06-21T17:10:57.215Z,3.50
2023-06-21T17:13:25.854Z,3.30
2023-06-21T17:15:54.848Z,3.60
2023-06-21T17:18:25.956Z,3.77
2023-06-21T17:21:00.403Z,3.67
2023-06-21T17:23:30.683Z,3.40
2023-06-21T17:25:59.487Z,3.67
2023-06-21T17:28:37.043Z,3.40
2023-06-21T17:31:15.366Z,4.37
2023-06-21T17:33:45.461Z,3.40
2023-06-21T17:36:13.871Z,3.27
2023-06-21T17:38:42.287Z,3.80
2023-06-21T17:41:13.476Z,3.97
2023-06-21T17:43:42.882Z,3.77
2023-06-21T17:46:11.270Z,4.70
2023-06-21T17:48:39.991Z,4.10
2023-06-21T17:51:09.882Z,3.67
2023-06-21T17:54:02.348Z,3.90
2023-06-21T17:56:44.821Z,3.40
2023-06-21T17:59:13.818Z,3.70
2023-06-21T18:01:42.700Z,3.40
2023-06-21T18:04:11.802Z,3.53
2023-06-21T18:06:42.720Z,3.43
2023-06-21T18:09:28.037Z,3.47
2023-06-21T18:11:56.268Z,3.57
2023-06-21T18:14:25.296Z,4.27
2023-06-21T18:16:53.557Z,4.20
2023-06-21T18:19:22.960Z,3.53
2023-06-21T18:22:11.318Z,3.67
2023-06-21T18:24:40.875Z,3.37
2023-06-21T18:27:09.765Z,4.00
2023-06-21T18:29:46.687Z,3.43
2023-06-21T18:32:22.973Z,4.00
2023-06-21T18:34:51.403Z,3.50
2023-06-21T18:37:21.642Z,3.73
2023-06-21T18:39:50.488Z,3.37
2023-06-21T18:42:19.028Z,3.63
2023-06-21T18:44:48.039Z,3.53
2023-06-21T18:47:19.484Z,3.90
2023-06-21T18:49:47.733Z,3.93
2023-06-21T18:52:19.036Z,3.50
2023-06-21T18:54:50.314Z,3.97
2023-06-21T18:57:19.257Z,3.60
2023-06-21T18:59:47.792Z,3.70
2023-06-21T19:02:16.153Z,4.07
2023-06-21T19:04:44.834Z,3.80
2023-06-21T19:07:13.965Z,3.80
2023-06-21T19:09:52.047Z,3.70
2023-06-21T19:22:00.715Z,3.83
2023-06-21T19:24:29.049Z,3.57
2023-06-21T19:26:59.064Z,3.47
2023-06-21T19:29:29.784Z,2.87
2023-06-21T19:31:58.304Z,3.67
2023-06-21T19:34:31.111Z,3.47
2023-06-21T19:37:00.992Z,3.63
2023-06-21T19:39:29.546Z,3.33
2023-06-21T19:41:58.357Z,3.47
2023-06-21T19:44:28.128Z,4.53
2023-06-21T19:46:56.463Z,3.60
2023-06-21T19:49:24.850Z,3.53
2023-06-21T19:51:53.196Z,3.30
2023-06-21T19:54:23.635Z,3.83
2023-06-21T19:56:53.234Z,3.23
2023-06-21T19:59:21.951Z,3.50
2023-06-21T20:01:50.580Z,4.07
2023-06-21T20:04:18.970Z,3.53
2023-06-21T20:06:48.095Z,3.87
2023-06-21T20:09:16.815Z,3.67
2023-06-21T20:11:46.626Z,3.77
2023-06-21T20:14:18.121Z,3.83
2023-06-21T20:16:46.599Z,4.30
2023-06-21T20:19:16.542Z,3.67
2023-06-21T20:21:47.019Z,4.40
2023-06-21T20:24:15.547Z,4.17
2023-06-21T20:26:44.587Z,4.30
2023-06-21T20:29:14.393Z,4.73
2023-06-21T20:31:44.121Z,4.10
2023-06-21T20:34:13.273Z,4.67
2023-06-21T20:36:42.588Z,4.60
2023-06-21T20:39:15.363Z,3.97
2023-06-21T20:41:43.783Z,4.17
2023-06-21T20:44:14.019Z,4.63
2023-06-21T20:46:44.042Z,4.20
2023-06-21T20:49:12.685Z,3.93
2023-06-21T20:51:41.391Z,3.90
2023-06-21T20:54:12.567Z,4.23
2023-06-21T20:56:41.373Z,4.30
2023-06-21T20:59:09.762Z,4.23
2023-06-21T21:04:40.948Z,3.70
2023-06-21T21:07:10.634Z,3.57
2023-06-21T21:09:39.043Z,3.93
2023-06-21T21:12:22.838Z,4.93
2023-06-21T21:14:52.630Z,4.23
2023-06-21T21:17:31.004Z,3.97
2023-06-21T21:19:59.495Z,4.30
2023-06-21T21:22:29.311Z,4.20
2023-06-21T21:24:57.640Z,4.13
2023-06-21T21:27:27.074Z,4.43
2023-06-21T21:29:55.505Z,4.03
2023-06-21T21:32:25.690Z,5.37
2023-06-21T21:34:54.082Z,4.00
2023-06-21T21:37:22.758Z,5.00
2023-06-21T21:39:52.969Z,4.70
2023-06-21T21:42:23.320Z,4.57
2023-06-21T21:44:51.966Z,4.67
2023-06-21T21:47:20.357Z,4.77
2023-06-21T21:49:48.770Z,4.87
2023-06-21T21:52:17.212Z,4.23
2023-06-21T21:54:45.579Z,4.87
2023-06-21T21:57:15.294Z,4.73
2023-06-21T21:59:44.326Z,4.83
2023-06-21T22:02:13.596Z,4.47
2023-06-21T22:04:48.894Z,5.23
2023-06-21T22:07:24.385Z,4.50
2023-06-21T22:09:52.792Z,4.47
2023-06-21T22:12:24.780Z,5.17
2023-06-21T22:14:53.943Z,5.00
2023-06-21T22:17:23.475Z,4.63
2023-06-21T22:19:52.845Z,4.20
2023-06-21T22:22:22.590Z,5.20
2023-06-21T22:24:51.282Z,4.50
2023-06-21T22:27:19.627Z,4.50
2023-06-21T22:29:49.834Z,4.77
2023-06-21T22:32:18.411Z,4.83
2023-06-21T22:34:53.393Z,4.40
2023-06-21T22:37:24.351Z,4.70
2023-06-21T22:39:53.033Z,4.47
2023-06-21T22:42:21.394Z,4.30
2023-06-21T22:44:51.198Z,4.47
2023-06-21T22:47:21.438Z,4.63
2023-06-21T22:49:50.265Z,4.37
2023-06-21T22:52:18.725Z,4.07
2023-06-21T22:54:47.104Z,3.97
2023-06-21T22:57:15.545Z,4.37
2023-06-21T22:59:44.396Z,4.43
2023-06-21T23:02:14.138Z,4.40
2023-06-21T23:04:45.571Z,4.33
2023-06-21T23:07:15.009Z,4.57
2023-06-21T23:09:43.316Z,4.57
2023-06-21T23:12:11.885Z,4.80
2023-06-21T23:14:40.152Z,4.37
2023-06-21T23:17:11.107Z,4.03
2023-06-21T23:19:40.749Z,4.10
2023-06-21T23:22:09.048Z,4.17
2023-06-21T23:24:37.406Z,4.67
2023-06-21T23:27:08.864Z,4.00
2023-06-21T23:29:42.180Z,3.83
2023-06-21T23:32:12.540Z,3.97
2023-06-21T23:34:45.813Z,4.23
2023-06-21T23:37:17.429Z,4.60
2023-06-21T23:39:55.477Z,4.30
2023-06-21T23:42:24.376Z,4.30
2023-06-21T23:44:53.187Z,3.97
2023-06-21T23:47:21.550Z,4.10
2023-06-21T23:49:51.363Z,4.30
2023-06-21T23:52:20.345Z,3.60
2023-06-21T23:54:49.453Z,4.80
2023-06-21T23:57:22.826Z,4.17
2023-06-21T23:59:51.197Z,4.20
